createdAt,value
2024-03-19T00:02:54.764Z,5.340000000000001
2024-03-19T00:05:50.332Z,5.640000000000001
2024-03-19T00:08:45.880Z,6.159999999999999
2024-03-19T00:11:41.462Z,6.360000000000001
2024-03-19T00:14:37.043Z,5.360000000000001
2024-03-19T00:17:32.604Z,5.9
2024-03-19T00:20:31.185Z,5.26
2024-03-19T00:23:28.672Z,5.92
2024-03-19T00:26:28.236Z,6.220000000000001
2024-03-19T00:29:25.809Z,6.540000000000001
2024-03-19T00:32:22.370Z,6.1
2024-03-19T00:35:18.984Z,5.4
2024-03-19T00:38:15.549Z,6.2
2024-03-19T00:41:11.025Z,5.38
2024-03-19T00:44:07.579Z,6.6
2024-03-19T00:47:04.153Z,5.4399999999999995
2024-03-19T00:50:00.697Z,6.960000000000001
2024-03-19T00:52:56.261Z,6.319999999999999
2024-03-19T00:55:51.864Z,4.52
2024-03-19T00:58:47.406Z,5.18
2024-03-19T01:01:42.971Z,5.12
2024-03-19T01:04:44.391Z,5.319999999999999
2024-03-19T01:07:42.072Z,5.279999999999999
2024-03-19T01:10:39.612Z,5.8
2024-03-19T01:13:36.153Z,5.6
2024-03-19T01:16:31.701Z,4.340000000000001
2024-03-19T01:19:28.297Z,5.0600000000000005
2024-03-19T01:22:23.848Z,4.4399999999999995
2024-03-19T01:25:19.397Z,5.04
2024-03-19T01:28:15.969Z,5
2024-03-19T01:31:11.509Z,5.38
2024-03-19T01:34:07.052Z,5.0200000000000005
2024-03-19T01:37:02.657Z,4.42
2024-03-19T01:39:58.230Z,4.0600000000000005
2024-03-19T01:42:55.946Z,5.04
2024-03-19T01:46:16.259Z,4.42
2024-03-19T01:49:12.826Z,5.720000000000001
2024-03-19T01:52:09.397Z,4.619999999999999
2024-03-19T01:55:06.934Z,6.5
2024-03-19T01:58:02.502Z,5.12
2024-03-19T02:00:58.042Z,5.14
2024-03-19T02:03:54.604Z,6.6
2024-03-19T02:06:52.183Z,5.32
2024-03-19T02:09:50.721Z,4.459999999999999
2024-03-19T02:12:46.312Z,4.82
2024-03-19T02:15:43.857Z,5.74
2024-03-19T02:18:39.434Z,4.76
2024-03-19T02:21:34.958Z,5.299999999999999
2024-03-19T02:24:32.537Z,4.54
2024-03-19T02:27:28.075Z,4.9399999999999995
2024-03-19T02:30:25.626Z,4.08
2024-03-19T02:33:21.163Z,6.58
2024-03-19T02:36:16.767Z,4.460000000000001
2024-03-19T02:39:15.712Z,5.1
2024-03-19T02:42:11.860Z,6
2024-03-19T02:45:09.779Z,4.54
2024-03-19T02:48:06.035Z,3.9199999999999995
2024-03-19T02:51:01.511Z,3.88
2024-03-19T02:53:59.116Z,4.58
2024-03-19T02:56:54.687Z,3.9799999999999995
2024-03-19T02:59:50.262Z,6.9
2024-03-19T03:02:45.819Z,3.9
2024-03-19T03:05:45.352Z,4.34
2024-03-19T03:08:40.930Z,5.4
2024-03-19T03:11:37.480Z,4.4
2024-03-19T03:14:34.057Z,4.5600000000000005
2024-03-19T03:17:30.623Z,4.92
2024-03-19T03:20:26.145Z,4.74
2024-03-19T03:23:21.685Z,4.68
2024-03-19T03:26:17.297Z,3.84
2024-03-19T03:29:12.832Z,4.46
2024-03-19T03:32:08.391Z,3.4
2024-03-19T03:35:04.962Z,4.0600000000000005
2024-03-19T03:38:00.562Z,3.2600000000000002
2024-03-19T03:40:57.033Z,3.78
2024-03-19T03:43:52.661Z,6.459999999999999
2024-03-19T03:46:48.204Z,4.82
2024-03-19T03:49:43.759Z,4.779999999999999
2024-03-19T03:52:41.326Z,4.94
2024-03-19T03:55:37.905Z,4.24
2024-03-19T03:58:33.401Z,3.2000000000000006
2024-03-19T04:01:29.949Z,3.6599999999999993
2024-03-19T04:04:25.565Z,4.5600000000000005
2024-03-19T04:07:22.116Z,2.9799999999999995
2024-03-19T04:10:18.659Z,4.06
2024-03-19T04:13:16.228Z,4.68
2024-03-19T04:16:12.786Z,4.52
2024-03-19T04:19:09.342Z,4.92
2024-03-19T04:22:05.930Z,4.2
2024-03-19T04:25:03.470Z,4.9
2024-03-19T04:27:59.020Z,3.7199999999999998
2024-03-19T04:30:55.581Z,3.9200000000000004
2024-03-19T04:34:03.224Z,4.58
2024-03-19T04:36:59.640Z,4.26
2024-03-19T04:39:56.269Z,4.5200000000000005
2024-03-19T04:42:52.809Z,3.94
2024-03-19T04:45:48.354Z,3.7600000000000002
2024-03-19T04:48:43.910Z,4.04
2024-03-19T04:51:40.444Z,4
2024-03-19T04:54:36.035Z,4.76
2024-03-19T04:57:31.563Z,4.279999999999999
2024-03-19T05:00:27.166Z,3.7
2024-03-19T05:03:23.712Z,4.54
2024-03-19T05:06:19.300Z,5.2
2024-03-19T05:09:15.831Z,7.74
2024-03-19T05:12:11.387Z,5.0200000000000005
2024-03-19T05:15:07.946Z,7
2024-03-19T05:18:03.519Z,6.6
2024-03-19T05:21:00.072Z,6.9
2024-03-19T05:23:56.662Z,5.72
2024-03-19T05:26:52.197Z,4.640000000000001
2024-03-19T05:29:48.747Z,6.38
2024-03-19T05:32:45.409Z,6.92
2024-03-19T05:35:42.884Z,5.779999999999999
2024-03-19T05:38:38.404Z,4.540000000000001
2024-03-19T05:41:34.007Z,4.68
2024-03-19T05:44:30.525Z,5.54
2024-03-19T05:47:26.146Z,5.08
2024-03-19T05:50:23.654Z,5.0600000000000005
2024-03-19T05:53:22.716Z,6.24
2024-03-19T05:59:29.388Z,3.5
2024-03-19T06:02:24.852Z,5.159999999999999
2024-03-19T06:05:20.775Z,4.640000000000001
2024-03-19T06:08:16.981Z,4.46
2024-03-19T06:11:13.550Z,4.42
2024-03-19T06:14:10.121Z,5.499999999999999
2024-03-19T06:17:07.687Z,4.459999999999999
2024-03-19T06:20:05.238Z,4.26
2024-03-19T06:23:02.767Z,5.32
2024-03-19T06:25:59.312Z,4.68
2024-03-19T06:28:55.908Z,2.96
2024-03-19T06:31:51.425Z,4.64
2024-03-19T06:34:47.021Z,7.1
2024-03-19T06:37:45.565Z,4.960000000000001
2024-03-19T06:40:43.126Z,3.6
2024-03-19T06:43:40.737Z,5.04
2024-03-19T06:46:37.246Z,4.999999999999999
2024-03-19T06:49:32.832Z,3.7199999999999998
2024-03-19T06:52:28.368Z,4.8
2024-03-19T06:55:23.940Z,9.940000000000001
2024-03-19T06:58:21.492Z,7.220000000000001
2024-03-19T07:01:19.047Z,10.2
2024-03-19T07:04:14.588Z,7.4
2024-03-19T07:07:14.156Z,6.6
2024-03-19T07:10:10.765Z,5.38
2024-03-19T07:13:07.255Z,6.5200000000000005
2024-03-19T07:16:04.829Z,3.6399999999999997
2024-03-19T07:19:00.358Z,7.040000000000001
2024-03-19T07:21:57.949Z,4.38
2024-03-19T07:24:54.472Z,6.62
2024-03-19T07:27:50.115Z,5.54
2024-03-19T07:30:46.620Z,5.26
2024-03-19T07:33:42.182Z,6.7
2024-03-19T07:36:40.725Z,5.58
2024-03-19T07:39:36.311Z,7.4799999999999995
2024-03-19T07:42:32.901Z,5.96
2024-03-19T07:45:28.487Z,3.7800000000000002
2024-03-19T07:48:28.037Z,4.040000000000001
2024-03-19T07:51:27.505Z,6.3
2024-03-19T07:54:29.136Z,5.3
2024-03-19T07:57:25.612Z,5.42
2024-03-19T08:00:26.152Z,5.5600000000000005
2024-03-19T08:03:22.768Z,6.359999999999999
2024-03-19T08:06:32.291Z,4.800000000000001
2024-03-19T08:09:29.826Z,9.14
2024-03-19T08:12:27.972Z,6.720000000000001
2024-03-19T08:15:23.922Z,6.380000000000001
2024-03-19T08:18:19.459Z,5.1
2024-03-19T08:21:17.069Z,5.24
2024-03-19T08:24:16.561Z,6.599999999999999
2024-03-19T08:27:17.515Z,6.5200000000000005
2024-03-19T08:30:13.735Z,4.4
2024-03-19T08:33:11.267Z,4.58
2024-03-19T08:36:08.808Z,6.739999999999999
2024-03-19T08:39:08.362Z,7.08
2024-03-19T08:42:06.922Z,7.279999999999999
2024-03-19T08:45:11.472Z,7.24
2024-03-19T08:48:10.019Z,9.440000000000001
2024-03-19T08:51:07.572Z,10.5
2024-03-19T08:54:03.089Z,4.739999999999999
2024-03-19T08:57:02.702Z,4.359999999999999
2024-03-19T09:00:02.234Z,9.9
2024-03-19T09:03:02.785Z,4.82
2024-03-19T09:05:59.379Z,5.62
2024-03-19T09:08:55.900Z,5.720000000000001
2024-03-19T09:11:52.490Z,6.24
2024-03-19T09:14:49.042Z,7.76
2024-03-19T09:17:46.690Z,7.9
2024-03-19T09:20:45.113Z,10.860000000000001
2024-03-19T09:23:44.976Z,7.82
2024-03-19T09:26:40.245Z,9.319999999999999
2024-03-19T09:29:37.628Z,8.16
2024-03-19T09:32:36.346Z,6.94
2024-03-19T09:35:35.871Z,7.18
2024-03-19T09:38:34.452Z,9.34
2024-03-19T09:41:36.019Z,7.4
2024-03-19T09:44:33.580Z,8.1
2024-03-19T09:47:32.155Z,7.0200000000000005
2024-03-19T09:50:27.711Z,10.82
2024-03-19T09:53:35.217Z,5.64
2024-03-19T09:56:30.789Z,7.06
2024-03-19T09:59:29.386Z,8.879999999999999
2024-03-19T10:02:27.876Z,6.960000000000001
2024-03-19T10:05:24.476Z,6.959999999999999
2024-03-19T10:08:21.976Z,7.44
2024-03-19T10:11:20.534Z,5.159999999999999
2024-03-19T10:14:16.098Z,6.5
2024-03-19T10:17:14.705Z,8
2024-03-19T10:20:12.255Z,6.460000000000001
2024-03-19T10:23:10.771Z,4.999999999999999
2024-03-19T10:26:09.351Z,6.540000000000001
2024-03-19T10:29:07.504Z,6.4
2024-03-19T10:32:14.929Z,6.42
2024-03-19T10:35:19.011Z,8.059999999999999
2024-03-19T10:38:25.175Z,6.760000000000001
2024-03-19T10:41:31.005Z,5.04
2024-03-19T10:44:36.636Z,4.7
2024-03-19T10:47:35.141Z,5.64
2024-03-19T10:50:32.665Z,7.039999999999999
2024-03-19T10:53:35.237Z,4.68
2024-03-19T10:56:35.766Z,5.539999999999999
2024-03-19T10:59:38.316Z,6.0600000000000005
2024-03-19T11:02:46.790Z,7.6
2024-03-19T11:05:52.412Z,10.040000000000001
2024-03-19T11:08:53.937Z,6.94
2024-03-19T11:11:51.481Z,7.160000000000001
2024-03-19T11:14:55.507Z,7.360000000000001
2024-03-19T11:17:52.595Z,5.220000000000001
2024-03-19T11:20:52.126Z,5.64
2024-03-19T11:23:52.666Z,6.459999999999999
2024-03-19T11:26:48.230Z,5.24
2024-03-19T11:29:49.811Z,6.42
2024-03-19T11:32:54.326Z,8.48
2024-03-19T11:35:53.856Z,6.220000000000001
2024-03-19T11:38:55.475Z,5.0600000000000005
2024-03-19T11:41:56.010Z,4.52
2024-03-19T11:44:52.515Z,5
2024-03-19T11:47:50.455Z,6.8
2024-03-19T11:50:54.614Z,7.38
2024-03-19T11:53:59.175Z,4.619999999999999
2024-03-19T11:56:59.734Z,7.6
2024-03-19T11:59:56.939Z,5.3
2024-03-19T12:02:54.823Z,5.16
2024-03-19T12:05:52.336Z,11.64
2024-03-19T12:08:49.920Z,6.24
2024-03-19T12:11:48.495Z,8.540000000000001
2024-03-19T12:14:47.004Z,6.4799999999999995
2024-03-19T12:17:46.617Z,5.14
2024-03-19T12:20:46.333Z,5.720000000000001
2024-03-19T12:23:45.660Z,5.26
2024-03-19T12:26:44.215Z,8.040000000000001
2024-03-19T12:29:43.783Z,7.9799999999999995
2024-03-19T12:32:49.656Z,7.76
2024-03-19T12:35:45.865Z,9.58
2024-03-19T12:38:46.818Z,4.299999999999999
2024-03-19T12:41:46.018Z,7.359999999999999
2024-03-19T12:44:47.763Z,7.68
2024-03-19T12:47:45.075Z,5.8999999999999995
2024-03-19T12:50:43.704Z,7.8
2024-03-19T12:53:41.167Z,6.140000000000001
2024-03-19T12:56:40.441Z,43.48
2024-03-19T12:59:38.325Z,66.4
2024-03-19T13:02:34.863Z,24.84
2024-03-19T13:05:30.417Z,31.96
2024-03-19T13:08:28.029Z,7.9799999999999995
2024-03-19T13:11:24.543Z,9.64
2024-03-19T13:14:21.134Z,6.24
2024-03-19T13:17:16.696Z,9.379999999999999
2024-03-19T13:20:12.266Z,10.9
2024-03-19T13:23:09.812Z,15.940000000000001
2024-03-19T13:26:10.324Z,6.180000000000001
2024-03-19T13:29:05.878Z,8.959999999999999
2024-03-19T13:32:01.512Z,9.940000000000001
2024-03-19T13:34:59.033Z,3.54
2024-03-19T13:37:55.685Z,7.12
2024-03-19T13:40:52.131Z,7.859999999999999
2024-03-19T13:43:47.673Z,8.66
2024-03-19T13:46:48.265Z,7.640000000000001
2024-03-19T13:49:59.562Z,7.08
2024-03-19T13:52:57.347Z,6.34
2024-03-19T13:55:53.851Z,7.74
2024-03-19T13:58:50.441Z,8.440000000000001
2024-03-19T14:01:48.023Z,6.2
2024-03-19T14:04:44.539Z,9.34
2024-03-19T14:07:40.093Z,7.1800000000000015
2024-03-19T14:10:38.727Z,8.4
2024-03-19T14:13:35.219Z,7.160000000000001
2024-03-19T14:16:31.791Z,6.9
2024-03-19T14:19:28.354Z,6.62
2024-03-19T14:22:29.883Z,5.540000000000001
2024-03-19T14:25:25.408Z,7.360000000000001
2024-03-19T14:28:21.986Z,7.5
2024-03-19T14:31:26.558Z,5.68
2024-03-19T14:34:25.094Z,11.34
2024-03-19T14:37:20.707Z,10.2
2024-03-19T14:40:17.223Z,8.959999999999999
2024-03-19T14:43:12.781Z,8.3
2024-03-19T14:46:10.357Z,5.72
2024-03-19T14:49:08.900Z,4.959999999999999
2024-03-19T14:52:05.447Z,6.18
2024-03-19T14:55:02.021Z,5.36
2024-03-19T14:58:01.576Z,6.92
2024-03-19T15:00:57.129Z,5.9799999999999995
2024-03-19T15:03:52.787Z,6.340000000000001
2024-03-19T15:06:48.622Z,6.32
2024-03-19T15:09:48.832Z,5.74
2024-03-19T15:12:46.345Z,5.62
2024-03-19T15:15:45.920Z,5.380000000000001
2024-03-19T15:18:42.460Z,7.219999999999999
2024-03-19T15:21:38.999Z,5.380000000000001
2024-03-19T15:24:34.545Z,5.540000000000001
2024-03-19T15:27:30.164Z,7.5
2024-03-19T15:30:27.680Z,4.9799999999999995
2024-03-19T15:33:23.295Z,8.120000000000001
2024-03-19T15:36:18.833Z,5
2024-03-19T15:39:15.710Z,6.279999999999999
2024-03-19T15:42:11.009Z,7.779999999999999
2024-03-19T15:45:11.486Z,22.86
2024-03-19T15:48:08.101Z,11.48
2024-03-19T15:51:06.641Z,12.959999999999999
2024-03-19T15:54:02.159Z,6.42
2024-03-19T15:56:59.726Z,9.76
2024-03-19T15:59:56.274Z,10.72
2024-03-19T16:02:57.821Z,13.280000000000001
2024-03-19T16:05:53.382Z,10
2024-03-19T16:08:54.942Z,29.18
2024-03-19T16:11:51.523Z,16.740000000000002
2024-03-19T16:14:47.071Z,22.82
2024-03-19T16:17:47.558Z,16.939999999999998
2024-03-19T16:20:44.167Z,16.54
2024-03-19T16:23:44.719Z,20.26
2024-03-19T16:26:40.492Z,22.52
2024-03-19T16:29:35.797Z,32.06
2024-03-19T16:32:33.389Z,33.260000000000005
2024-03-19T16:35:28.966Z,46.779999999999994
2024-03-19T16:38:26.537Z,46.82
2024-03-19T16:41:22.078Z,44.28
2024-03-19T16:44:22.608Z,39.1
2024-03-19T16:47:18.137Z,45.7
2024-03-19T16:50:16.088Z,37.7
2024-03-19T16:53:11.310Z,38.48
2024-03-19T16:56:08.852Z,35.36
2024-03-19T16:59:05.445Z,30.559999999999995
2024-03-19T17:02:07.959Z,26.6
2024-03-19T17:05:09.508Z,33.36
2024-03-19T17:08:10.262Z,36.6
2024-03-19T17:11:06.610Z,39.22
2024-03-19T17:14:06.158Z,37.32
2024-03-19T17:17:04.726Z,43.68
2024-03-19T17:20:11.078Z,58.419999999999995
2024-03-19T17:23:14.848Z,68.72
2024-03-19T17:26:14.315Z,61.8
2024-03-19T17:29:10.926Z,70.58000000000001
2024-03-19T17:32:11.416Z,61.08
2024-03-19T17:35:13.013Z,70.78
2024-03-19T17:38:18.542Z,98.84
2024-03-19T17:41:16.090Z,111.12
2024-03-19T17:44:17.379Z,91.23999999999998
2024-03-19T17:47:20.164Z,93.56
2024-03-19T17:50:19.732Z,93.88
2024-03-19T17:53:19.281Z,89.9
2024-03-19T17:56:21.734Z,65.16
2024-03-19T17:59:20.402Z,59.06
2024-03-19T18:02:20.906Z,117.17999999999999
2024-03-19T18:05:16.587Z,208.03999999999996
2024-03-19T18:08:13.059Z,215.44
2024-03-19T18:11:09.602Z,296.21999999999997
2024-03-19T18:14:06.147Z,326.74
2024-03-19T18:17:05.709Z,368.21999999999997
2024-03-19T18:20:01.278Z,371.68
2024-03-19T18:23:07.798Z,165.14000000000001
2024-03-19T18:26:08.374Z,127.97999999999999
2024-03-19T18:29:08.914Z,137.76
2024-03-19T18:32:07.932Z,148.57999999999998
2024-03-19T18:35:06.025Z,141.6
2024-03-19T18:38:04.555Z,83.06
2024-03-19T18:41:01.134Z,52.36
2024-03-19T18:44:04.666Z,46.67999999999999
2024-03-19T18:47:11.011Z,38.58
2024-03-19T18:50:09.573Z,49.3
2024-03-19T18:53:11.339Z,49.31999999999999
2024-03-19T18:56:15.891Z,46.42
2024-03-19T18:59:13.409Z,57.02
2024-03-19T19:02:08.962Z,63.14
2024-03-19T19:05:12.510Z,102.4
2024-03-19T19:08:08.185Z,102.24
2024-03-19T19:11:05.692Z,103.78
2024-03-19T19:14:02.184Z,94.35999999999999
2024-03-19T19:17:08.192Z,90.76
2024-03-19T19:20:05.283Z,130.32
2024-03-19T19:23:02.809Z,153.95999999999998
2024-03-19T19:26:00.422Z,127.7
2024-03-19T19:29:10.715Z,124.88
2024-03-19T19:32:15.480Z,101.16
2024-03-19T19:35:24.990Z,69.38
2024-03-19T19:38:31.253Z,60.48
2024-03-19T19:41:49.539Z,46.4
2024-03-19T19:44:45.589Z,34.02
2024-03-19T19:47:42.170Z,28.499999999999993
2024-03-19T19:50:44.700Z,24.7
2024-03-19T19:53:45.206Z,21.619999999999997
2024-03-19T19:56:49.060Z,23.24
2024-03-19T19:59:57.098Z,25.660000000000004
2024-03-19T20:02:57.827Z,19.64
2024-03-19T20:05:57.392Z,21
2024-03-19T20:08:54.995Z,21.46
2024-03-19T20:12:00.492Z,20.200000000000003
2024-03-19T20:14:59.068Z,16.6
2024-03-19T20:17:55.594Z,16.619999999999997
2024-03-19T20:20:59.155Z,16.839999999999996
2024-03-19T20:24:00.714Z,21.34
2024-03-19T20:26:57.274Z,22.659999999999997
2024-03-19T20:29:57.815Z,18.6
2024-03-19T20:32:56.399Z,19.48
2024-03-19T20:35:57.963Z,18.419999999999998
2024-03-19T20:38:59.462Z,21.4
2024-03-19T20:42:00.987Z,21.020000000000003
2024-03-19T20:44:59.561Z,21.22
2024-03-19T20:48:06.167Z,24.24
2024-03-19T20:51:09.664Z,19.240000000000002
2024-03-19T20:54:09.176Z,18.880000000000003
2024-03-19T20:57:10.753Z,21.08
2024-03-19T21:00:16.605Z,21
2024-03-19T21:03:18.796Z,28.840000000000003
2024-03-19T21:07:02.200Z,275.36
2024-03-19T21:10:02.721Z,46.84
2024-03-19T21:12:58.358Z,20.94
2024-03-19T21:15:53.895Z,19.2
2024-03-19T21:18:55.450Z,23.020000000000003
2024-03-19T21:21:52.019Z,17.86
2024-03-19T21:24:49.934Z,17.659999999999997
2024-03-19T21:27:45.095Z,18.68
2024-03-19T21:30:44.702Z,15.780000000000001
2024-03-19T21:33:42.676Z,16.300000000000004
2024-03-19T21:36:44.780Z,15.719999999999999
2024-03-19T21:39:41.382Z,17.16
2024-03-19T21:42:36.913Z,16.92
2024-03-19T21:48:39.015Z,44.28
2024-03-19T21:51:35.528Z,47.3
2024-03-19T21:54:32.125Z,251.08
2024-03-19T21:57:31.680Z,261.6
2024-03-19T22:00:32.218Z,174.94
2024-03-19T22:03:31.789Z,91.9
2024-03-19T22:09:32.871Z,73.86
2024-03-19T22:12:32.762Z,59.42
2024-03-19T22:18:37.555Z,33.86
2024-03-19T22:21:33.050Z,24.880000000000003
2024-03-19T22:24:31.707Z,20.24
2024-03-19T22:27:28.205Z,18.32
2024-03-19T22:30:24.729Z,17.48
2024-03-19T22:33:20.299Z,16.9
2024-03-19T22:36:15.917Z,17.04
2024-03-19T22:39:23.427Z,21.6
2024-03-19T22:42:20.057Z,20.4
2024-03-19T22:45:15.505Z,19.62
2024-03-19T22:48:11.076Z,18.32
2024-03-19T22:51:06.649Z,16.339999999999996
2024-03-19T22:54:02.186Z,17.860000000000003
2024-03-19T22:56:58.768Z,19.360000000000003
2024-03-19T23:03:06.827Z,21.26
2024-03-19T23:06:05.374Z,18.259999999999998
2024-03-19T23:09:02.945Z,24.419999999999998
2024-03-19T23:11:58.487Z,24.939999999999998
2024-03-19T23:14:55.066Z,23.52
2024-03-19T23:17:52.928Z,19.220000000000002
2024-03-19T23:20:48.201Z,22.4
2024-03-19T23:23:46.708Z,25.439999999999998
2024-03-19T23:26:42.314Z,19.04
2024-03-19T23:29:38.837Z,21.659999999999997
2024-03-19T23:32:35.543Z,21.68
2024-03-19T23:35:30.930Z,22.78
2024-03-19T23:38:26.502Z,19.56
2024-03-19T23:41:24.080Z,17.22
2024-03-19T23:44:19.695Z,19.6
2024-03-19T23:47:16.221Z,17.42
2024-03-19T23:50:11.788Z,18.860000000000003
2024-03-19T23:53:10.303Z,14.34
2024-03-19T23:56:08.863Z,15.76
2024-03-19T23:59:05.446Z,13.819999999999999
